Time;durP1;ratioP1;P1;durP2;ratioP2;P2;SDS_P1;SDS_P2;PMS_P1;PMS_P2;Temp;Humidity;BMP_temperature;BMP_pressure;BME280_temperature;BME280_humidity;BME280_pressure;Samples;Min_cycle;Max_cycle;Signal;HPM_P1;HPM_P2
2023/03/16 00:00:00;;;;;;;10.48;2.67;;;;;;;;;;5035217;28;20099;-58
2023/03/16 00:02:28;;;;;;;10.85;2.72;;;;;;;;;;5068533;28;20067;-58
2023/03/16 00:04:56;;;;;;;8.13;3.13;;;;;;;;;;5043353;28;20063;-58
2023/03/16 00:07:25;;;;;;;9.38;2.60;;;;;;;;;;5057859;28;20047;-58
2023/03/16 00:09:55;;;;;;;7.93;2.50;;;;;;;;;;5043716;28;20492;-58
2023/03/16 00:12:25;;;;;;;7.35;2.17;;;;;;;;;;5039164;28;20044;-58
2023/03/16 00:14:53;;;;;;;7.47;2.42;;;;;;;;;;5053005;28;20506;-57
2023/03/16 00:17:21;;;;;;;11.83;2.60;;;;;;;;;;5042788;28;20044;-58
2023/03/16 00:19:53;;;;;;;9.65;2.38;;;;;;;;;;5045499;28;20044;-57
2023/03/16 00:22:23;;;;;;;6.25;1.90;;;;;;;;;;5053004;28;20040;-57
2023/03/16 00:24:53;;;;;;;8.90;1.88;;;;;;;;;;5031128;28;20495;-58
2023/03/16 00:27:23;;;;;;;8.75;2.13;;;;;;;;;;5050378;28;20044;-57
2023/03/16 00:29:54;;;;;;;7.50;2.03;;;;;;;;;;5040114;28;20479;-57
2023/03/16 00:32:24;;;;;;;10.57;2.80;;;;;;;;;;5049887;28;20035;-58
2023/03/16 00:34:51;;;;;;;7.25;2.42;;;;;;;;;;5046906;28;20721;-57
2023/03/16 00:37:22;;;;;;;5.72;1.10;;;;;;;;;;5043645;28;20129;-56
2023/03/16 00:39:50;;;;;;;11.68;1.88;;;;;;;;;;5019667;28;20033;-57
2023/03/16 00:42:20;;;;;;;7.53;1.57;;;;;;;;;;5042369;28;20071;-57
2023/03/16 00:44:47;;;;;;;6.80;1.30;;;;;;;;;;5019700;28;20130;-57
2023/03/16 00:47:15;;;;;;;8.80;1.95;;;;;;;;;;5022985;28;20051;-55
2023/03/16 00:49:46;;;;;;;8.85;1.70;;;;;;;;;;5032391;28;20047;-56
2023/03/16 00:52:16;;;;;;;5.63;1.23;;;;;;;;;;5031313;28;20272;-57
2023/03/16 00:54:47;;;;;;;9.50;1.33;;;;;;;;;;5017680;28;20044;-58
2023/03/16 00:57:17;;;;;;;6.10;1.33;;;;;;;;;;5030324;28;20036;-56
2023/03/16 00:59:47;;;;;;;4.05;1.00;;;;;;;;;;5022188;28;20041;-54
2023/03/16 01:02:15;;;;;;;7.90;1.40;;;;;;;;;;5034588;28;20079;-57
2023/03/16 01:04:43;;;;;;;8.68;1.80;;;;;;;;;;5015950;28;21652;-58
2023/03/16 01:07:12;;;;;;;7.70;1.60;;;;;;;;;;5038005;28;20132;-56
2023/03/16 01:09:40;;;;;;;6.18;1.23;;;;;;;;;;5012023;28;20523;-56
2023/03/16 01:12:09;;;;;;;6.68;1.48;;;;;;;;;;5034400;28;20123;-57
2023/03/16 01:14:36;;;;;;;6.97;1.48;;;;;;;;;;5005596;28;20037;-58
2023/03/16 01:17:07;;;;;;;9.50;1.50;;;;;;;;;;5034641;28;20128;-56
2023/03/16 01:19:35;;;;;;;9.80;1.70;;;;;;;;;;5030509;28;20032;-55
2023/03/16 01:22:04;;;;;;;8.32;1.40;;;;;;;;;;5028020;28;20123;-57
2023/03/16 01:24:33;;;;;;;9.40;1.95;;;;;;;;;;5029188;28;20041;-57
2023/03/16 01:27:02;;;;;;;10.23;2.10;;;;;;;;;;5031101;28;20040;-58
2023/03/16 01:29:30;;;;;;;5.32;1.00;;;;;;;;;;5027738;28;20032;-56
2023/03/16 01:31:58;;;;;;;9.97;1.73;;;;;;;;;;5029754;28;20048;-57
2023/03/16 01:34:27;;;;;;;8.85;1.35;;;;;;;;;;5040490;28;20662;-56
2023/03/16 01:36:55;;;;;;;8.45;1.67;;;;;;;;;;5030241;28;20062;-58
2023/03/16 01:39:22;;;;;;;8.63;1.20;;;;;;;;;;5067160;28;20570;-57
2023/03/16 01:41:50;;;;;;;5.22;1.20;;;;;;;;;;5038938;28;21629;-56
2023/03/16 01:44:19;;;;;;;9.23;1.33;;;;;;;;;;5048335;28;20068;-57
2023/03/16 01:46:46;;;;;;;8.50;1.90;;;;;;;;;;5043219;28;20041;-57
2023/03/16 01:49:15;;;;;;;7.38;2.13;;;;;;;;;;5048258;28;20080;-57
2023/03/16 01:51:46;;;;;;;10.68;1.58;;;;;;;;;;5043602;28;21334;-56
2023/03/16 01:54:17;;;;;;;5.88;1.38;;;;;;;;;;5065884;28;21100;-57
2023/03/16 01:56:48;;;;;;;7.40;1.07;;;;;;;;;;5041128;28;20111;-57
2023/03/16 01:59:17;;;;;;;20.45;1.98;;;;;;;;;;5049299;28;20371;-58
2023/03/16 02:01:46;;;;;;;8.05;1.75;;;;;;;;;;5041796;28;20040;-56
2023/03/16 02:04:21;;;;;;;8.30;1.58;;;;;;;;;;5042895;28;20419;-57
2023/03/16 02:06:52;;;;;;;12.68;1.63;;;;;;;;;;5059421;28;20036;-58
2023/03/16 02:09:22;;;;;;;8.73;1.67;;;;;;;;;;5048167;28;20054;-56
2023/03/16 02:11:49;;;;;;;5.05;1.08;;;;;;;;;;5049770;28;20643;-56
2023/03/16 02:14:17;;;;;;;9.27;1.50;;;;;;;;;;5055051;28;21174;-58
2023/03/16 02:16:46;;;;;;;7.30;1.52;;;;;;;;;;5041278;28;20575;-56
2023/03/16 02:19:16;;;;;;;6.68;1.30;;;;;;;;;;5048787;28;20048;-57
2023/03/16 02:21:48;;;;;;;6.87;1.23;;;;;;;;;;5050703;28;20210;-56
2023/03/16 02:24:18;;;;;;;10.40;1.88;;;;;;;;;;5065101;28;20103;-56
2023/03/16 02:26:48;;;;;;;6.03;1.48;;;;;;;;;;5044127;28;20036;-58
2023/03/16 02:29:24;;;;;;;5.75;1.40;;;;;;;;;;5048339;28;20036;-58
2023/03/16 02:31:54;;;;;;;8.00;1.23;;;;;;;;;;5017393;28;20037;-58
2023/03/16 02:34:22;;;;;;;8.90;1.23;;;;;;;;;;5052481;28;20056;-56
2023/03/16 02:36:51;;;;;;;9.43;1.67;;;;;;;;;;5054285;28;20075;-57
2023/03/16 02:39:19;;;;;;;11.02;1.98;;;;;;;;;;5029372;28;20109;-57
2023/03/16 02:41:47;;;;;;;6.95;1.50;;;;;;;;;;5030563;28;20550;-57
2023/03/16 02:44:15;;;;;;;9.10;1.52;;;;;;;;;;5035215;28;20044;-58
2023/03/16 02:46:43;;;;;;;7.07;1.20;;;;;;;;;;5072315;28;20036;-58
2023/03/16 02:49:16;;;;;;;4.75;0.88;;;;;;;;;;5025365;28;20047;-56
2023/03/16 02:51:43;;;;;;;7.45;1.23;;;;;;;;;;5056405;28;20036;-57
2023/03/16 02:54:11;;;;;;;8.60;1.38;;;;;;;;;;5033279;28;20043;-57
2023/03/16 02:56:39;;;;;;;8.63;1.40;;;;;;;;;;5061552;28;20048;-57
2023/03/16 02:59:07;;;;;;;10.37;1.23;;;;;;;;;;5052291;28;20580;-58
2023/03/16 03:01:35;;;;;;;5.85;0.90;;;;;;;;;;5034114;28;20046;-55
2023/03/16 03:04:03;;;;;;;6.80;1.50;;;;;;;;;;5037575;28;20093;-57
2023/03/16 03:06:32;;;;;;;6.00;1.17;;;;;;;;;;5064721;28;20273;-58
2023/03/16 03:09:00;;;;;;;5.88;1.13;;;;;;;;;;5045736;28;20044;-58
2023/03/16 03:11:28;;;;;;;4.33;0.83;;;;;;;;;;5053696;28;20040;-57
2023/03/16 03:13:56;;;;;;;5.32;1.13;;;;;;;;;;5059627;28;20044;-58
2023/03/16 03:16:24;;;;;;;4.68;0.80;;;;;;;;;;5014011;28;20041;-58
2023/03/16 03:18:52;;;;;;;9.55;1.60;;;;;;;;;;5058276;28;20032;-58
2023/03/16 03:21:20;;;;;;;4.65;0.85;;;;;;;;;;5043554;28;20060;-57
2023/03/16 03:23:49;;;;;;;7.97;1.03;;;;;;;;;;5045404;28;20173;-57
2023/03/16 03:26:17;;;;;;;10.18;1.63;;;;;;;;;;5050647;28;20324;-57
2023/03/16 03:28:45;;;;;;;6.65;1.42;;;;;;;;;;5033110;28;20547;-56
2023/03/16 03:31:13;;;;;;;7.68;1.05;;;;;;;;;;5050743;28;20124;-57
2023/03/16 03:33:41;;;;;;;7.60;1.63;;;;;;;;;;5035108;28;20043;-57
2023/03/16 03:36:10;;;;;;;6.57;1.43;;;;;;;;;;5060545;28;20147;-56
2023/03/16 03:38:38;;;;;;;6.78;0.98;;;;;;;;;;5028015;28;20072;-57
2023/03/16 03:41:07;;;;;;;6.55;1.10;;;;;;;;;;5039118;28;20123;-57
2023/03/16 03:43:54;;;;;;;5.47;1.30;;;;;;;;;;5034345;28;20495;-57
2023/03/16 03:46:22;;;;;;;6.30;0.95;;;;;;;;;;5017987;28;20112;-56
2023/03/16 03:48:51;;;;;;;10.93;1.80;;;;;;;;;;5033454;28;20065;-58
2023/03/16 03:51:18;;;;;;;9.00;1.00;;;;;;;;;;5041913;28;20521;-57
2023/03/16 03:53:46;;;;;;;8.63;1.60;;;;;;;;;;5032119;28;20068;-57
2023/03/16 03:56:15;;;;;;;4.10;0.63;;;;;;;;;;5020643;28;20155;-58
2023/03/16 03:58:42;;;;;;;8.15;1.08;;;;;;;;;;4992341;28;20041;-58
2023/03/16 04:01:10;;;;;;;6.40;0.90;;;;;;;;;;5035519;28;20037;-58
2023/03/16 04:03:38;;;;;;;7.63;1.27;;;;;;;;;;5017500;28;20807;-58
2023/03/16 04:06:07;;;;;;;5.15;0.82;;;;;;;;;;5031065;28;20077;-57
2023/03/16 04:08:34;;;;;;;3.75;0.80;;;;;;;;;;5029322;28;20046;-57
2023/03/16 04:11:02;;;;;;;4.57;0.70;;;;;;;;;;5043200;28;20040;-57
2023/03/16 04:13:31;;;;;;;6.03;1.07;;;;;;;;;;5006016;28;20032;-56
2023/03/16 04:16:01;;;;;;;7.00;1.50;;;;;;;;;;5028633;28;20472;-58
2023/03/16 04:18:29;;;;;;;9.73;1.08;;;;;;;;;;5016386;28;20049;-57
2023/03/16 04:20:56;;;;;;;8.35;1.00;;;;;;;;;;5030405;28;20083;-58
2023/03/16 04:23:24;;;;;;;5.97;1.10;;;;;;;;;;5036214;28;20036;-57
2023/03/16 04:25:53;;;;;;;7.70;0.60;;;;;;;;;;5033785;28;20115;-57
2023/03/16 04:28:21;;;;;;;5.88;1.00;;;;;;;;;;5006976;28;20036;-57
2023/03/16 04:30:50;;;;;;;6.22;1.00;;;;;;;;;;5041018;28;20036;-57
2023/03/16 04:33:17;;;;;;;6.07;1.05;;;;;;;;;;5018721;28;20495;-57
2023/03/16 04:35:45;;;;;;;5.78;1.10;;;;;;;;;;5037942;28;20136;-57
2023/03/16 04:38:13;;;;;;;6.83;1.10;;;;;;;;;;5036640;28;20549;-58
2023/03/16 04:40:41;;;;;;;9.52;1.50;;;;;;;;;;5065083;28;20040;-57
2023/03/16 04:43:08;;;;;;;9.15;1.40;;;;;;;;;;5033633;28;20315;-58
2023/03/16 04:45:36;;;;;;;5.75;1.10;;;;;;;;;;5056827;28;20036;-57
2023/03/16 04:48:05;;;;;;;5.45;1.00;;;;;;;;;;5036571;28;20127;-58
2023/03/16 04:50:34;;;;;;;8.27;1.10;;;;;;;;;;5055764;28;20135;-58
2023/03/16 04:53:03;;;;;;;6.93;0.90;;;;;;;;;;5049229;28;20149;-58
2023/03/16 04:55:34;;;;;;;7.30;1.30;;;;;;;;;;5040402;28;20051;-58
2023/03/16 04:58:01;;;;;;;6.22;1.23;;;;;;;;;;5040879;28;20554;-58
2023/03/16 05:00:33;;;;;;;6.25;0.70;;;;;;;;;;5063518;28;20044;-57
2023/03/16 05:03:03;;;;;;;6.67;1.17;;;;;;;;;;5062103;28;20071;-58
2023/03/16 05:05:33;;;;;;;7.63;0.93;;;;;;;;;;5037670;28;20036;-57
2023/03/16 05:08:07;;;;;;;6.45;0.90;;;;;;;;;;5055405;28;20290;-58
2023/03/16 05:10:35;;;;;;;5.40;1.00;;;;;;;;;;5045360;28;20033;-57
2023/03/16 05:13:02;;;;;;;5.07;0.90;;;;;;;;;;5049514;28;20122;-58
2023/03/16 05:15:30;;;;;;;5.10;1.20;;;;;;;;;;5027085;28;20135;-58
2023/03/16 05:17:58;;;;;;;8.30;1.90;;;;;;;;;;5062696;28;20071;-58
2023/03/16 05:20:25;;;;;;;4.15;0.65;;;;;;;;;;5046587;28;20036;-58
2023/03/16 05:22:55;;;;;;;7.10;0.85;;;;;;;;;;5029269;28;20040;-58
2023/03/16 05:25:22;;;;;;;5.40;0.80;;;;;;;;;;5036188;28;20491;-58
2023/03/16 05:27:52;;;;;;;6.70;0.73;;;;;;;;;;5050467;28;20036;-58
2023/03/16 05:30:20;;;;;;;3.20;0.80;;;;;;;;;;5063148;28;20439;-57
2023/03/16 05:32:53;;;;;;;6.65;1.08;;;;;;;;;;5051054;28;20510;-58
2023/03/16 05:35:21;;;;;;;3.15;0.80;;;;;;;;;;5045578;28;20059;-58
2023/03/16 05:37:50;;;;;;;4.32;0.80;;;;;;;;;;5057975;28;20036;-58
2023/03/16 05:40:21;;;;;;;4.67;0.70;;;;;;;;;;5044031;28;20043;-58
2023/03/16 05:42:53;;;;;;;4.65;0.80;;;;;;;;;;5025209;28;20631;-58
2023/03/16 05:45:21;;;;;;;5.72;1.00;;;;;;;;;;5040630;28;20098;-58
2023/03/16 05:47:48;;;;;;;6.13;1.10;;;;;;;;;;5016633;28;20040;-59
2023/03/16 05:50:16;;;;;;;5.10;0.68;;;;;;;;;;5049367;28;20141;-58
2023/03/16 05:52:44;;;;;;;4.70;0.83;;;;;;;;;;5049713;28;20140;-58
2023/03/16 05:55:13;;;;;;;6.35;0.70;;;;;;;;;;5043843;28;20039;-57
2023/03/16 05:57:44;;;;;;;5.53;0.57;;;;;;;;;;5046653;28;20139;-58
2023/03/16 06:00:14;;;;;;;6.50;1.13;;;;;;;;;;5045720;28;20040;-58
2023/03/16 06:02:42;;;;;;;6.45;0.75;;;;;;;;;;5053154;28;20114;-58
2023/03/16 06:05:10;;;;;;;6.53;1.10;;;;;;;;;;5045395;28;20044;-57
2023/03/16 06:07:38;;;;;;;7.18;0.85;;;;;;;;;;5033354;28;20109;-57
2023/03/16 06:10:07;;;;;;;5.55;1.10;;;;;;;;;;5025091;28;20028;-57
2023/03/16 06:12:34;;;;;;;4.53;0.70;;;;;;;;;;5048772;28;20115;-57
2023/03/16 06:15:06;;;;;;;5.22;0.57;;;;;;;;;;5053321;28;20114;-58
2023/03/16 06:17:33;;;;;;;3.67;0.37;;;;;;;;;;5048962;28;20044;-57
2023/03/16 06:20:08;;;;;;;9.77;1.20;;;;;;;;;;5050889;28;20445;-58
2023/03/16 06:22:36;;;;;;;9.05;0.90;;;;;;;;;;5037784;28;20520;-57
2023/03/16 06:25:04;;;;;;;4.10;0.55;;;;;;;;;;5043518;28;20168;-58
2023/03/16 06:27:32;;;;;;;4.00;0.70;;;;;;;;;;5062813;28;20040;-58
2023/03/16 06:30:00;;;;;;;4.07;0.50;;;;;;;;;;5031562;28;20587;-58
2023/03/16 06:32:29;;;;;;;6.78;0.80;;;;;;;;;;5049795;28;20040;-58
2023/03/16 06:34:58;;;;;;;4.65;0.77;;;;;;;;;;5035940;28;20641;-58
2023/03/16 06:37:26;;;;;;;5.93;0.82;;;;;;;;;;5030930;28;20158;-57
2023/03/16 06:39:55;;;;;;;6.63;0.63;;;;;;;;;;5024728;28;20040;-58
2023/03/16 06:42:22;;;;;;;9.07;1.00;;;;;;;;;;5034951;28;20131;-58
2023/03/16 06:44:52;;;;;;;6.85;0.90;;;;;;;;;;5042506;28;20562;-58
2023/03/16 06:47:20;;;;;;;9.05;1.02;;;;;;;;;;5014799;28;20474;-58
2023/03/16 06:49:50;;;;;;;6.45;0.95;;;;;;;;;;5028408;28;20048;-58
2023/03/16 06:52:18;;;;;;;7.68;0.90;;;;;;;;;;5025565;28;20508;-58
2023/03/16 06:54:45;;;;;;;6.00;0.60;;;;;;;;;;5031495;28;20048;-57
2023/03/16 06:57:13;;;;;;;7.22;0.85;;;;;;;;;;5035437;28;20056;-58
2023/03/16 06:59:41;;;;;;;5.97;1.20;;;;;;;;;;5022106;28;20044;-58
2023/03/16 07:02:10;;;;;;;6.13;0.93;;;;;;;;;;5018440;28;20562;-57
2023/03/16 07:04:38;;;;;;;5.32;0.68;;;;;;;;;;5019314;28;20097;-58
2023/03/16 07:07:07;;;;;;;2.97;0.50;;;;;;;;;;5033594;28;20084;-58
2023/03/16 07:09:35;;;;;;;8.23;0.90;;;;;;;;;;5015029;28;20061;-57
2023/03/16 07:12:07;;;;;;;4.22;0.40;;;;;;;;;;5030036;28;20064;-58
2023/03/16 07:14:35;;;;;;;7.45;0.80;;;;;;;;;;5003958;28;20025;-57
2023/03/16 07:17:03;;;;;;;6.28;1.08;;;;;;;;;;5034595;28;20797;-57
2023/03/16 07:19:30;;;;;;;6.17;0.63;;;;;;;;;;5024230;28;20488;-56
2023/03/16 07:21:58;;;;;;;8.63;0.77;;;;;;;;;;5043685;28;20036;-56
2023/03/16 07:24:27;;;;;;;5.13;1.05;;;;;;;;;;5021201;28;20036;-56
2023/03/16 07:26:54;;;;;;;6.55;0.80;;;;;;;;;;5006769;28;20029;-58
2023/03/16 07:29:23;;;;;;;9.02;1.05;;;;;;;;;;5048680;28;20147;-58
2023/03/16 07:31:54;;;;;;;5.50;0.87;;;;;;;;;;5021935;28;20036;-58
2023/03/16 07:34:21;;;;;;;3.78;0.70;;;;;;;;;;5036347;28;20067;-58
2023/03/16 07:36:51;;;;;;;6.85;1.00;;;;;;;;;;5034528;28;20060;-58
2023/03/16 07:39:19;;;;;;;3.50;0.40;;;;;;;;;;5047462;28;20083;-58
2023/03/16 07:41:48;;;;;;;7.97;1.00;;;;;;;;;;5049486;28;21802;-57
2023/03/16 07:44:15;;;;;;;5.37;0.73;;;;;;;;;;5049172;28;20046;-58
2023/03/16 07:46:43;;;;;;;8.30;0.80;;;;;;;;;;5058806;28;20818;-57
2023/03/16 07:49:11;;;;;;;5.68;0.80;;;;;;;;;;5033758;28;20072;-58
2023/03/16 07:51:39;;;;;;;5.35;0.70;;;;;;;;;;5054618;28;20051;-58
2023/03/16 07:54:07;;;;;;;3.55;0.43;;;;;;;;;;5026736;28;20645;-58
2023/03/16 07:56:35;;;;;;;4.17;0.40;;;;;;;;;;5062393;28;20097;-58
2023/03/16 07:59:16;;;;;;;7.20;0.77;;;;;;;;;;5035007;28;20048;-58
2023/03/16 08:01:47;;;;;;;8.15;0.65;;;;;;;;;;5041868;28;20032;-58
2023/03/16 08:04:15;;;;;;;5.13;0.45;;;;;;;;;;5057877;28;20075;-57
2023/03/16 08:06:42;;;;;;;4.47;0.68;;;;;;;;;;5041793;28;20601;-58
2023/03/16 08:09:10;;;;;;;6.20;0.70;;;;;;;;;;5056215;28;20046;-57
2023/03/16 08:11:38;;;;;;;4.75;0.82;;;;;;;;;;5048625;28;20127;-57
2023/03/16 08:14:06;;;;;;;5.45;0.95;;;;;;;;;;5055855;28;20472;-57
2023/03/16 08:16:37;;;;;;;3.92;0.28;;;;;;;;;;5047726;28;20497;-58
2023/03/16 08:19:05;;;;;;;8.40;0.60;;;;;;;;;;5052041;28;20051;-57
2023/03/16 08:21:35;;;;;;;5.30;0.97;;;;;;;;;;5063296;28;20043;-57
2023/03/16 08:24:22;;;;;;;5.55;0.77;;;;;;;;;;5040550;28;20072;-57
2023/03/16 08:26:50;;;;;;;5.90;0.70;;;;;;;;;;5049956;28;20496;-57
2023/03/16 08:29:18;;;;;;;6.97;0.50;;;;;;;;;;5046303;28;20047;-55
2023/03/16 08:31:47;;;;;;;8.38;1.10;;;;;;;;;;5050886;28;20095;-55
2023/03/16 08:34:21;;;;;;;5.67;0.90;;;;;;;;;;5034950;28;20040;-57
2023/03/16 08:36:49;;;;;;;4.88;0.60;;;;;;;;;;5050352;28;20151;-56
2023/03/16 08:39:16;;;;;;;5.53;0.57;;;;;;;;;;5036337;28;20115;-56
2023/03/16 08:41:44;;;;;;;9.63;1.25;;;;;;;;;;5049345;28;20074;-58
2023/03/16 08:44:12;;;;;;;5.47;0.65;;;;;;;;;;5047333;28;20044;-56
2023/03/16 08:46:41;;;;;;;5.57;0.60;;;;;;;;;;5026720;28;20120;-56
2023/03/16 08:49:11;;;;;;;5.80;0.70;;;;;;;;;;5047993;28;20125;-56
2023/03/16 08:51:39;;;;;;;4.55;0.30;;;;;;;;;;5052056;28;20117;-57
2023/03/16 08:54:07;;;;;;;6.32;0.60;;;;;;;;;;5034244;28;20043;-58
2023/03/16 08:56:34;;;;;;;7.13;0.95;;;;;;;;;;5041327;28;20040;-57
2023/03/16 08:59:02;;;;;;;4.93;0.60;;;;;;;;;;5039951;28;20462;-57
2023/03/16 09:01:30;;;;;;;6.50;1.20;;;;;;;;;;5031748;28;20033;-57
2023/03/16 09:03:59;;;;;;;5.40;0.80;;;;;;;;;;5061111;28;20419;-57
2023/03/16 09:06:28;;;;;;;4.28;0.50;;;;;;;;;;5042857;28;21539;-56
2023/03/16 09:08:56;;;;;;;6.38;0.98;;;;;;;;;;5063336;28;20161;-57
2023/03/16 09:11:27;;;;;;;5.03;0.60;;;;;;;;;;5023310;28;20247;-57
2023/03/16 09:13:54;;;;;;;8.15;0.70;;;;;;;;;;5069138;28;20032;-57
2023/03/16 09:16:24;;;;;;;5.78;0.68;;;;;;;;;;5034616;28;20032;-57
2023/03/16 09:18:52;;;;;;;3.78;0.45;;;;;;;;;;5054603;28;20048;-57
2023/03/16 09:21:24;;;;;;;5.73;0.80;;;;;;;;;;4504166;28;10001777;-58
2023/03/16 09:23:55;;;;;;;6.90;0.60;;;;;;;;;;5039523;28;20138;-58
2023/03/16 09:26:22;;;;;;;10.02;0.50;;;;;;;;;;5045390;28;20067;-57
2023/03/16 09:28:50;;;;;;;5.00;0.77;;;;;;;;;;5047647;28;20051;-57
2023/03/16 09:31:19;;;;;;;6.37;0.90;;;;;;;;;;5027201;28;20290;-58
2023/03/16 09:33:47;;;;;;;6.70;0.60;;;;;;;;;;5050267;28;20047;-56
2023/03/16 09:36:15;;;;;;;6.60;0.85;;;;;;;;;;5031570;28;20799;-57
2023/03/16 09:38:43;;;;;;;7.22;0.80;;;;;;;;;;5042220;28;20050;-57
2023/03/16 09:41:22;;;;;;;5.05;0.88;;;;;;;;;;4672951;28;10000578;-57
2023/03/16 09:43:58;;;;;;;6.73;1.10;;;;;;;;;;4994759;28;20044;-58
2023/03/16 09:46:27;;;;;;;5.35;0.70;;;;;;;;;;5028516;28;20538;-57
2023/03/16 09:48:56;;;;;;;7.40;1.20;;;;;;;;;;5012292;28;20044;-57
2023/03/16 09:51:32;;;;;;;8.43;0.90;;;;;;;;;;5025346;28;20037;-57
2023/03/16 09:54:02;;;;;;;9.90;0.75;;;;;;;;;;5008682;28;21475;-57
2023/03/16 09:56:34;;;;;;;6.10;0.60;;;;;;;;;;5021190;28;20550;-57
2023/03/16 09:59:03;;;;;;;5.43;0.50;;;;;;;;;;5034265;28;20046;-58
2023/03/16 10:01:40;;;;;;;6.82;0.50;;;;;;;;;;5029449;28;20541;-57
2023/03/16 10:04:20;;;;;;;4.05;0.60;;;;;;;;;;5030650;28;20032;-58
2023/03/16 10:06:54;;;;;;;3.70;0.50;;;;;;;;;;5036292;28;20044;-57
2023/03/16 10:09:28;;;;;;;4.70;0.80;;;;;;;;;;5054079;28;20386;-58
2023/03/16 10:11:58;;;;;;;3.97;0.68;;;;;;;;;;5044452;28;20056;-58
2023/03/16 10:14:30;;;;;;;7.03;1.08;;;;;;;;;;5030645;28;20483;-58
2023/03/16 10:17:01;;;;;;;4.18;0.47;;;;;;;;;;5029789;28;20078;-58
2023/03/16 10:19:33;;;;;;;5.43;0.60;;;;;;;;;;5042394;28;20043;-58
2023/03/16 10:22:08;;;;;;;4.73;0.57;;;;;;;;;;5056694;28;20419;-58
2023/03/16 10:24:41;;;;;;;4.20;0.77;;;;;;;;;;5041033;28;20132;-58
2023/03/16 10:27:16;;;;;;;4.78;0.43;;;;;;;;;;5055648;28;20126;-58
2023/03/16 10:29:44;;;;;;;7.07;0.73;;;;;;;;;;5053140;28;20075;-58
2023/03/16 10:32:13;;;;;;;4.65;0.60;;;;;;;;;;5045154;28;20062;-58
2023/03/16 10:34:41;;;;;;;3.90;0.67;;;;;;;;;;5051860;28;20559;-57
2023/03/16 10:37:12;;;;;;;11.85;0.77;;;;;;;;;;5048258;28;20049;-56
2023/03/16 10:39:41;;;;;;;5.68;0.73;;;;;;;;;;5051635;28;20041;-57
2023/03/16 10:42:16;;;;;;;4.95;0.57;;;;;;;;;;5024122;28;20496;-58
2023/03/16 10:44:44;;;;;;;6.75;0.88;;;;;;;;;;5052835;28;20497;-58
2023/03/16 10:47:18;;;;;;;5.40;0.73;;;;;;;;;;5049795;28;20102;-56
2023/03/16 10:49:47;;;;;;;4.25;0.80;;;;;;;;;;5054297;28;20086;-57
2023/03/16 10:52:18;;;;;;;4.75;0.57;;;;;;;;;;5046629;28;20143;-57
2023/03/16 10:54:48;;;;;;;6.32;0.60;;;;;;;;;;5025436;28;20123;-57
2023/03/16 10:57:23;;;;;;;5.65;0.60;;;;;;;;;;5036930;28;20051;-57
2023/03/16 10:59:52;;;;;;;6.70;0.90;;;;;;;;;;5014589;28;20127;-57
2023/03/16 11:02:22;;;;;;;6.57;0.80;;;;;;;;;;5032310;28;20153;-58
2023/03/16 11:04:50;;;;;;;5.90;0.95;;;;;;;;;;5037881;28;21152;-57
2023/03/16 11:07:18;;;;;;;5.47;0.50;;;;;;;;;;5049913;28;20111;-58
2023/03/16 11:09:46;;;;;;;6.90;0.75;;;;;;;;;;5053274;28;20046;-58
2023/03/16 11:12:16;;;;;;;6.77;1.03;;;;;;;;;;5063233;28;20491;-57
2023/03/16 11:14:45;;;;;;;5.82;0.98;;;;;;;;;;5060265;28;20094;-58
2023/03/16 11:17:14;;;;;;;6.53;0.77;;;;;;;;;;5064246;28;20048;-58
2023/03/16 11:19:45;;;;;;;7.60;1.05;;;;;;;;;;5021415;28;20503;-58
2023/03/16 11:22:17;;;;;;;6.47;1.13;;;;;;;;;;5047250;28;20697;-59
2023/03/16 11:24:46;;;;;;;7.60;0.90;;;;;;;;;;5047572;28;20514;-58
2023/03/16 11:27:18;;;;;;;5.22;0.70;;;;;;;;;;5059576;28;20071;-57
2023/03/16 11:29:54;;;;;;;7.07;0.80;;;;;;;;;;5027838;28;20039;-57
2023/03/16 11:32:26;;;;;;;4.55;0.60;;;;;;;;;;5058022;28;20518;-55
2023/03/16 11:34:53;;;;;;;2.78;0.32;;;;;;;;;;5049273;28;20032;-57
2023/03/16 11:37:28;;;;;;;8.37;0.93;;;;;;;;;;5037889;28;20126;-58
2023/03/16 11:40:08;;;;;;;9.50;1.40;;;;;;;;;;5008764;28;20071;-57
2023/03/16 11:42:38;;;;;;;4.07;0.40;;;;;;;;;;4691308;28;9999725;-57
2023/03/16 11:45:15;;;;;;;8.02;0.80;;;;;;;;;;5051539;28;20462;-57
2023/03/16 11:47:56;;;;;;;5.07;0.70;;;;;;;;;;5045523;28;20041;-57
2023/03/16 11:50:28;;;;;;;7.07;0.53;;;;;;;;;;5061500;28;20044;-57
2023/03/16 11:52:59;;;;;;;7.20;1.17;;;;;;;;;;5049581;28;20072;-57
2023/03/16 11:55:31;;;;;;;8.32;1.00;;;;;;;;;;5055439;28;20024;-57
2023/03/16 11:58:04;;;;;;;6.97;1.10;;;;;;;;;;5052028;28;20039;-57
2023/03/16 12:00:39;;;;;;;8.38;0.85;;;;;;;;;;5044269;28;20044;-58
2023/03/16 12:03:24;;;;;;;7.63;1.43;;;;;;;;;;5012185;28;20068;-59
2023/03/16 12:05:56;;;;;;;3.65;0.50;;;;;;;;;;5033341;28;20048;-57
2023/03/16 12:08:30;;;;;;;8.48;0.80;;;;;;;;;;5003870;28;21310;-57
2023/03/16 12:11:01;;;;;;;5.47;0.70;;;;;;;;;;5039073;28;20032;-55
2023/03/16 12:13:40;;;;;;;4.00;0.52;;;;;;;;;;5037023;28;20040;-57
2023/03/16 12:16:12;;;;;;;3.50;0.60;;;;;;;;;;5041375;28;20124;-57
2023/03/16 12:18:43;;;;;;;5.38;0.90;;;;;;;;;;5032928;28;20802;-58
2023/03/16 12:21:13;;;;;;;3.28;0.35;;;;;;;;;;5032326;28;20048;-57
2023/03/16 12:23:44;;;;;;;4.60;0.70;;;;;;;;;;5020927;28;20488;-56
2023/03/16 12:26:14;;;;;;;4.72;0.60;;;;;;;;;;5038542;28;20046;-57
2023/03/16 12:28:42;;;;;;;6.73;1.37;;;;;;;;;;5039206;28;20043;-57
2023/03/16 12:31:13;;;;;;;8.70;1.08;;;;;;;;;;5026786;28;20052;-57
2023/03/16 12:33:53;;;;;;;3.63;0.63;;;;;;;;;;5034781;28;21023;-56
2023/03/16 12:36:46;;;;;;;5.45;0.63;;;;;;;;;;5028785;28;20131;-57
2023/03/16 12:39:17;;;;;;;4.15;0.60;;;;;;;;;;5019542;28;20072;-56
2023/03/16 12:41:51;;;;;;;3.50;0.70;;;;;;;;;;5039277;28;20059;-55
2023/03/16 12:44:20;;;;;;;4.28;0.50;;;;;;;;;;5018743;28;20473;-57
2023/03/16 12:46:56;;;;;;;4.25;0.57;;;;;;;;;;5032925;28;20514;-57
2023/03/16 12:49:25;;;;;;;4.05;0.65;;;;;;;;;;5015079;28;20052;-57
2023/03/16 12:51:59;;;;;;;3.83;0.65;;;;;;;;;;5025966;28;20040;-57
2023/03/16 12:54:27;;;;;;;6.30;0.80;;;;;;;;;;4999533;28;20032;-57
2023/03/16 12:57:00;;;;;;;5.78;0.52;;;;;;;;;;5031714;28;20040;-57
2023/03/16 12:59:37;;;;;;;5.50;0.60;;;;;;;;;;5018964;28;20040;-55
2023/03/16 13:02:09;;;;;;;4.18;0.60;;;;;;;;;;5026735;28;20449;-57
2023/03/16 13:04:40;;;;;;;7.32;0.90;;;;;;;;;;5016583;28;20044;-57
2023/03/16 13:07:10;;;;;;;5.57;0.80;;;;;;;;;;5019072;28;20115;-55
2023/03/16 13:09:42;;;;;;;2.85;0.50;;;;;;;;;;5019037;28;20101;-58
2023/03/16 13:12:21;;;;;;;6.95;0.73;;;;;;;;;;4675661;28;10000049;-56
2023/03/16 13:14:53;;;;;;;4.53;0.73;;;;;;;;;;5015388;28;20397;-56
2023/03/16 13:17:30;;;;;;;6.13;0.65;;;;;;;;;;5016425;28;20048;-56
2023/03/16 13:19:59;;;;;;;3.20;0.70;;;;;;;;;;5026607;28;20102;-57
2023/03/16 13:22:28;;;;;;;2.58;0.40;;;;;;;;;;5002241;28;20067;-57
2023/03/16 13:24:59;;;;;;;4.00;0.50;;;;;;;;;;5019100;28;20512;-57
2023/03/16 13:27:28;;;;;;;5.93;0.65;;;;;;;;;;5016124;28;20666;-56
2023/03/16 13:29:57;;;;;;;6.47;0.70;;;;;;;;;;5021573;28;20992;-57
2023/03/16 13:32:30;;;;;;;4.80;0.87;;;;;;;;;;5038251;28;20040;-56
2023/03/16 13:34:58;;;;;;;5.82;1.10;;;;;;;;;;4988624;28;20040;-57
2023/03/16 13:37:28;;;;;;;6.63;0.85;;;;;;;;;;5017845;28;20835;-58
2023/03/16 13:39:56;;;;;;;5.32;0.80;;;;;;;;;;5026010;28;20055;-57
2023/03/16 13:42:26;;;;;;;6.60;0.98;;;;;;;;;;5038343;28;20036;-57
2023/03/16 13:44:55;;;;;;;8.83;1.20;;;;;;;;;;5024478;28;20102;-57
2023/03/16 13:47:25;;;;;;;4.80;0.60;;;;;;;;;;4316986;28;10000681;-57
2023/03/16 13:49:57;;;;;;;8.23;1.23;;;;;;;;;;5027296;28;20036;-56
2023/03/16 13:52:26;;;;;;;6.33;0.90;;;;;;;;;;5016628;28;20048;-57
2023/03/16 13:54:58;;;;;;;6.55;1.08;;;;;;;;;;5022192;28;20065;-57
2023/03/16 13:57:29;;;;;;;6.28;1.02;;;;;;;;;;5017263;28;20563;-57
2023/03/16 14:00:04;;;;;;;5.32;1.13;;;;;;;;;;5026291;28;20551;-57
2023/03/16 14:02:36;;;;;;;6.93;1.00;;;;;;;;;;5023216;28;20531;-57
2023/03/16 14:05:19;;;;;;;6.27;1.10;;;;;;;;;;5012768;28;20036;-57
2023/03/16 14:07:48;;;;;;;6.10;1.52;;;;;;;;;;5022705;28;20318;-57
2023/03/16 14:10:16;;;;;;;6.03;1.15;;;;;;;;;;5025362;28;20055;-57
2023/03/16 14:12:50;;;;;;;5.63;0.88;;;;;;;;;;5009024;28;20519;-57
2023/03/16 14:15:18;;;;;;;4.60;1.17;;;;;;;;;;5031262;28;20578;-57
2023/03/16 14:17:46;;;;;;;8.13;1.27;;;;;;;;;;5017372;28;20032;-55
2023/03/16 14:20:19;;;;;;;6.50;1.00;;;;;;;;;;5048619;28;20044;-56
2023/03/16 14:22:47;;;;;;;5.90;1.00;;;;;;;;;;5044239;28;20048;-57
2023/03/16 14:25:20;;;;;;;7.15;1.10;;;;;;;;;;5050102;28;20048;-56
2023/03/16 14:27:57;;;;;;;4.50;1.17;;;;;;;;;;5036708;28;20036;-57
2023/03/16 14:30:26;;;;;;;5.73;0.90;;;;;;;;;;5050568;28;20044;-57
2023/03/16 14:32:55;;;;;;;7.90;1.00;;;;;;;;;;5033249;28;20036;-57
2023/03/16 14:35:26;;;;;;;7.38;1.13;;;;;;;;;;5054287;28;20115;-56
2023/03/16 14:37:55;;;;;;;7.60;2.13;;;;;;;;;;5027449;28;20058;-54
2023/03/16 14:40:28;;;;;;;8.88;1.52;;;;;;;;;;5045424;28;20569;-55
2023/03/16 14:42:57;;;;;;;8.67;1.30;;;;;;;;;;5019777;28;20100;-57
2023/03/16 14:45:27;;;;;;;5.35;0.95;;;;;;;;;;5049190;28;20033;-56
2023/03/16 14:48:00;;;;;;;10.75;1.80;;;;;;;;;;5022951;28;20040;-57
2023/03/16 14:50:32;;;;;;;6.90;1.23;;;;;;;;;;5052143;28;20480;-55
2023/03/16 14:53:00;;;;;;;6.13;1.23;;;;;;;;;;5027023;28;20133;-57
2023/03/16 14:55:28;;;;;;;6.13;1.57;;;;;;;;;;5043244;28;20118;-56